sensor_id;sensor_type;location;lat;lon;timestamp;pressure;altitude;pressure_sealevel;temperature;humidity
70758;BME280;59316;52.964;7.102;2022-12-24T00:03:51;100228.81;;;5.39;nan
70758;BME280;59316;52.964;7.102;2022-12-24T00:08:54;100229.66;;;5.39;nan
70758;BME280;59316;52.964;7.102;2022-12-24T00:13:56;100239.31;;;5.37;nan
70758;BME280;59316;52.964;7.102;2022-12-24T00:18:59;100229.66;;;5.39;nan
70758;BME280;59316;52.964;7.102;2022-12-24T00:24:01;100233.94;;;5.40;nan
70758;BME280;59316;52.964;7.102;2022-12-24T00:29:04;100232.34;;;5.38;nan
70758;BME280;59316;52.964;7.102;2022-12-24T00:34:06;100237.44;;;5.39;nan
70758;BME280;59316;52.964;7.102;2022-12-24T00:39:08;100246.13;;;5.40;nan
70758;BME280;59316;52.964;7.102;2022-12-24T00:44:11;100266.75;;;5.43;nan
70758;BME280;59316;52.964;7.102;2022-12-24T00:49:13;100278.84;;;5.44;nan
70758;BME280;59316;52.964;7.102;2022-12-24T00:54:16;100276.22;;;5.44;nan
70758;BME280;59316;52.964;7.102;2022-12-24T00:59:18;100266.59;;;5.46;nan
70758;BME280;59316;52.964;7.102;2022-12-24T01:04:21;100275.72;;;5.53;nan
70758;BME280;59316;52.964;7.102;2022-12-24T01:09:23;100280.34;;;5.48;nan
70758;BME280;59316;52.964;7.102;2022-12-24T01:14:26;100289.00;;;5.49;nan
70758;BME280;59316;52.964;7.102;2022-12-24T01:19:28;100313.34;;;5.48;nan
70758;BME280;59316;52.964;7.102;2022-12-24T01:24:30;100309.88;;;5.47;nan
70758;BME280;59316;52.964;7.102;2022-12-24T01:29:33;100321.88;;;5.50;nan
70758;BME280;59316;52.964;7.102;2022-12-24T01:34:35;100333.03;;;5.52;nan
70758;BME280;59316;52.964;7.102;2022-12-24T01:39:38;100338.06;;;5.55;nan
70758;BME280;59316;52.964;7.102;2022-12-24T01:44:42;100337.31;;;5.69;nan
70758;BME280;59316;52.964;7.102;2022-12-24T01:49:52;100354.09;;;5.79;nan
70758;BME280;59316;52.964;7.102;2022-12-24T01:55:13;100365.50;;;5.93;nan
70758;BME280;59316;52.964;7.102;2022-12-24T02:00:17;100373.41;;;6.07;nan
70758;BME280;59316;52.964;7.102;2022-12-24T02:10:22;100369.56;;;6.29;nan
70758;BME280;59316;52.964;7.102;2022-12-24T02:15:28;100375.34;;;6.34;nan
70758;BME280;59316;52.964;7.102;2022-12-24T02:20:42;100383.81;;;6.53;nan
70758;BME280;59316;52.964;7.102;2022-12-24T02:31:34;100410.94;;;6.49;nan
70758;BME280;59316;52.964;7.102;2022-12-24T02:36:47;100412.88;;;6.46;nan
70758;BME280;59316;52.964;7.102;2022-12-24T02:41:55;100424.41;;;6.42;nan
70758;BME280;59316;52.964;7.102;2022-12-24T02:47:00;100427.50;;;6.48;nan
70758;BME280;59316;52.964;7.102;2022-12-24T02:52:05;100432.47;;;6.53;nan
70758;BME280;59316;52.964;7.102;2022-12-24T02:57:33;100430.41;;;6.74;nan
70758;BME280;59316;52.964;7.102;2022-12-24T03:13:12;100456.34;;;7.20;nan
70758;BME280;59316;52.964;7.102;2022-12-24T03:18:19;100458.50;;;7.28;nan
70758;BME280;59316;52.964;7.102;2022-12-24T03:23:22;100466.13;;;7.31;nan
70758;BME280;59316;52.964;7.102;2022-12-24T03:28:26;100473.78;;;7.34;nan
70758;BME280;59316;52.964;7.102;2022-12-24T03:33:30;100481.63;;;7.34;nan
70758;BME280;59316;52.964;7.102;2022-12-24T03:38:32;100488.13;;;7.42;nan
70758;BME280;59316;52.964;7.102;2022-12-24T03:43:35;100489.91;;;7.41;nan
70758;BME280;59316;52.964;7.102;2022-12-24T03:48:37;100504.28;;;7.48;nan
70758;BME280;59316;52.964;7.102;2022-12-24T03:53:40;100509.19;;;7.53;nan
70758;BME280;59316;52.964;7.102;2022-12-24T03:58:42;100511.63;;;7.56;nan
70758;BME280;59316;52.964;7.102;2022-12-24T04:03:44;100512.28;;;7.60;nan
70758;BME280;59316;52.964;7.102;2022-12-24T04:08:47;100514.41;;;7.53;nan
70758;BME280;59316;52.964;7.102;2022-12-24T04:13:49;100525.63;;;7.55;nan
70758;BME280;59316;52.964;7.102;2022-12-24T04:18:52;100531.41;;;7.60;nan
70758;BME280;59316;52.964;7.102;2022-12-24T04:23:54;100542.31;;;7.52;nan
70758;BME280;59316;52.964;7.102;2022-12-24T04:28:57;100543.13;;;7.53;nan
70758;BME280;59316;52.964;7.102;2022-12-24T04:33:59;100555.72;;;7.46;nan
70758;BME280;59316;52.964;7.102;2022-12-24T04:39:02;100566.47;;;7.56;nan
70758;BME280;59316;52.964;7.102;2022-12-24T04:44:05;100567.66;;;7.50;nan
70758;BME280;59316;52.964;7.102;2022-12-24T04:49:07;100580.06;;;7.47;nan
70758;BME280;59316;52.964;7.102;2022-12-24T04:54:10;100585.72;;;7.39;nan
70758;BME280;59316;52.964;7.102;2022-12-24T04:59:12;100576.78;;;7.43;nan
70758;BME280;59316;52.964;7.102;2022-12-24T05:04:15;100592.53;;;7.42;nan
70758;BME280;59316;52.964;7.102;2022-12-24T05:09:17;100596.34;;;7.36;nan
70758;BME280;59316;52.964;7.102;2022-12-24T05:14:20;100607.59;;;7.36;nan
70758;BME280;59316;52.964;7.102;2022-12-24T05:19:22;100605.09;;;7.35;nan
70758;BME280;59316;52.964;7.102;2022-12-24T05:24:25;100604.53;;;7.30;nan
70758;BME280;59316;52.964;7.102;2022-12-24T05:29:27;100613.78;;;7.35;nan
70758;BME280;59316;52.964;7.102;2022-12-24T05:34:29;100619.63;;;7.39;nan
70758;BME280;59316;52.964;7.102;2022-12-24T05:39:32;100633.94;;;7.48;nan
70758;BME280;59316;52.964;7.102;2022-12-24T05:44:34;100639.34;;;7.45;nan
70758;BME280;59316;52.964;7.102;2022-12-24T05:49:37;100633.94;;;7.48;nan
70758;BME280;59316;52.964;7.102;2022-12-24T05:54:39;100642.44;;;7.51;nan
70758;BME280;59316;52.964;7.102;2022-12-24T05:59:41;100650.34;;;7.50;nan
70758;BME280;59316;52.964;7.102;2022-12-24T06:04:44;100657.97;;;7.38;nan
70758;BME280;59316;52.964;7.102;2022-12-24T06:09:46;100655.25;;;7.40;nan
70758;BME280;59316;52.964;7.102;2022-12-24T06:14:49;100661.56;;;7.52;nan
70758;BME280;59316;52.964;7.102;2022-12-24T06:19:51;100663.22;;;7.53;nan
70758;BME280;59316;52.964;7.102;2022-12-24T06:24:54;100658.19;;;7.50;nan
70758;BME280;59316;52.964;7.102;2022-12-24T06:29:56;100672.84;;;7.52;nan
70758;BME280;59316;52.964;7.102;2022-12-24T06:34:58;100678.31;;;7.48;nan
70758;BME280;59316;52.964;7.102;2022-12-24T06:40:01;100674.78;;;7.49;nan
70758;BME280;59316;52.964;7.102;2022-12-24T06:45:04;100687.34;;;7.42;nan
70758;BME280;59316;52.964;7.102;2022-12-24T06:50:09;100695.84;;;7.46;nan
70758;BME280;59316;52.964;7.102;2022-12-24T06:55:12;100699.28;;;7.46;nan
70758;BME280;59316;52.964;7.102;2022-12-24T07:00:15;100711.16;;;7.52;nan
70758;BME280;59316;52.964;7.102;2022-12-24T07:05:17;100696.50;;;7.49;nan
70758;BME280;59316;52.964;7.102;2022-12-24T07:10:20;100715.28;;;7.56;nan
70758;BME280;59316;52.964;7.102;2022-12-24T07:15:23;100735.22;;;7.57;nan
70758;BME280;59316;52.964;7.102;2022-12-24T07:20:25;100748.28;;;7.57;nan
70758;BME280;59316;52.964;7.102;2022-12-24T07:25:27;100745.50;;;7.60;nan
70758;BME280;59316;52.964;7.102;2022-12-24T07:30:30;100749.69;;;7.63;nan
70758;BME280;59316;52.964;7.102;2022-12-24T07:35:33;100758.00;;;7.69;nan
70758;BME280;59316;52.964;7.102;2022-12-24T07:40:35;100766.97;;;7.65;nan
70758;BME280;59316;52.964;7.102;2022-12-24T07:45:38;100755.16;;;7.58;nan
70758;BME280;59316;52.964;7.102;2022-12-24T07:50:41;100769.56;;;7.65;nan
70758;BME280;59316;52.964;7.102;2022-12-24T07:55:44;100783.97;;;7.73;nan
70758;BME280;59316;52.964;7.102;2022-12-24T08:00:46;100796.94;;;7.74;nan
70758;BME280;59316;52.964;7.102;2022-12-24T08:05:49;100798.63;;;7.75;nan
70758;BME280;59316;52.964;7.102;2022-12-24T08:10:52;100798.63;;;7.75;nan
70758;BME280;59316;52.964;7.102;2022-12-24T08:15:54;100807.97;;;7.79;nan
70758;BME280;59316;52.964;7.102;2022-12-24T08:20:57;100822.78;;;7.79;nan
70758;BME280;59316;52.964;7.102;2022-12-24T08:25:59;100834.41;;;7.89;nan
70758;BME280;59316;52.964;7.102;2022-12-24T08:31:02;100837.59;;;7.78;nan
70758;BME280;59316;52.964;7.102;2022-12-24T08:36:05;100847.53;;;7.87;nan
70758;BME280;59316;52.964;7.102;2022-12-24T08:41:08;100855.88;;;7.78;nan
70758;BME280;59316;52.964;7.102;2022-12-24T08:46:10;100854.63;;;7.69;nan
70758;BME280;59316;52.964;7.102;2022-12-24T08:51:13;100855.78;;;7.80;nan
70758;BME280;59316;52.964;7.102;2022-12-24T08:56:15;100872.16;;;7.83;nan
70758;BME280;59316;52.964;7.102;2022-12-24T09:01:19;100880.47;;;7.90;nan
70758;BME280;59316;52.964;7.102;2022-12-24T09:06:22;100883.94;;;7.91;nan
70758;BME280;59316;52.964;7.102;2022-12-24T09:11:25;100897.69;;;7.94;nan
70758;BME280;59316;52.964;7.102;2022-12-24T09:16:27;100893.78;;;8.01;nan
70758;BME280;59316;52.964;7.102;2022-12-24T09:21:30;100900.94;;;8.14;nan
70758;BME280;59316;52.964;7.102;2022-12-24T09:26:33;100913.75;;;8.18;nan
70758;BME280;59316;52.964;7.102;2022-12-24T09:31:35;100924.94;;;8.20;nan
70758;BME280;59316;52.964;7.102;2022-12-24T09:36:38;100943.31;;;8.19;nan
70758;BME280;59316;52.964;7.102;2022-12-24T09:52:29;100943.88;;;8.40;nan
70758;BME280;59316;52.964;7.102;2022-12-24T09:57:36;100946.56;;;8.39;nan
70758;BME280;59316;52.964;7.102;2022-12-24T10:02:40;100957.59;;;8.60;nan
70758;BME280;59316;52.964;7.102;2022-12-24T10:13:13;100963.63;;;8.76;nan
70758;BME280;59316;52.964;7.102;2022-12-24T10:18:37;100965.66;;;8.71;nan
70758;BME280;59316;52.964;7.102;2022-12-24T10:23:51;100973.88;;;8.65;nan
70758;BME280;59316;52.964;7.102;2022-12-24T10:29:09;100966.38;;;8.59;nan
70758;BME280;59316;52.964;7.102;2022-12-24T10:34:21;100965.13;;;8.50;nan
70758;BME280;59316;52.964;7.102;2022-12-24T10:39:25;100974.16;;;8.44;nan
70758;BME280;59316;52.964;7.102;2022-12-24T10:44:30;100988.41;;;8.55;nan
70758;BME280;59316;52.964;7.102;2022-12-24T10:49:39;100992.78;;;8.54;nan
70758;BME280;59316;52.964;7.102;2022-12-24T10:55:04;100991.59;;;8.44;nan
70758;BME280;59316;52.964;7.102;2022-12-24T11:00:18;101002.66;;;8.65;nan
70758;BME280;59316;52.964;7.102;2022-12-24T11:05:34;100978.91;;;8.68;nan
70758;BME280;59316;52.964;7.102;2022-12-24T11:10:40;100983.09;;;8.87;nan
70758;BME280;59316;52.964;7.102;2022-12-24T11:15:43;100980.47;;;8.87;nan
70758;BME280;59316;52.964;7.102;2022-12-24T11:20:50;100974.78;;;8.94;nan
70758;BME280;59316;52.964;7.102;2022-12-24T11:25:55;100971.25;;;9.24;nan
70758;BME280;59316;52.964;7.102;2022-12-24T11:36:03;100980.50;;;9.15;nan
70758;BME280;59316;52.964;7.102;2022-12-24T11:41:11;100987.63;;;9.28;nan
70758;BME280;59316;52.964;7.102;2022-12-24T11:46:19;100999.28;;;9.08;nan
70758;BME280;59316;52.964;7.102;2022-12-24T11:51:24;101017.16;;;9.15;nan
70758;BME280;59316;52.964;7.102;2022-12-24T11:56:43;101018.06;;;9.00;nan
70758;BME280;59316;52.964;7.102;2022-12-24T12:01:54;101024.63;;;9.07;nan
70758;BME280;59316;52.964;7.102;2022-12-24T12:12:26;101029.13;;;9.20;nan
70758;BME280;59316;52.964;7.102;2022-12-24T12:17:46;101032.41;;;9.23;nan
70758;BME280;59316;52.964;7.102;2022-12-24T12:28:01;101035.41;;;9.46;nan
70758;BME280;59316;52.964;7.102;2022-12-24T12:38:24;101046.09;;;9.72;nan
70758;BME280;59316;52.964;7.102;2022-12-24T13:10:51;101074.81;;;9.59;nan
70758;BME280;59316;52.964;7.102;2022-12-24T13:21:16;101088.56;;;9.62;nan
70758;BME280;59316;52.964;7.102;2022-12-24T13:26:19;101090.31;;;9.33;nan
70758;BME280;59316;52.964;7.102;2022-12-24T13:31:23;101099.88;;;9.18;nan
70758;BME280;59316;52.964;7.102;2022-12-24T13:37:00;101094.38;;;9.08;nan
70758;BME280;59316;52.964;7.102;2022-12-24T13:42:03;101102.56;;;9.02;nan
70758;BME280;59316;52.964;7.102;2022-12-24T14:02:36;101123.09;;;9.24;nan
70758;BME280;59316;52.964;7.102;2022-12-24T14:07:45;101126.50;;;9.10;nan
70758;BME280;59316;52.964;7.102;2022-12-24T14:12:51;101140.06;;;8.87;nan
70758;BME280;59316;52.964;7.102;2022-12-24T14:17:53;101155.84;;;8.69;nan
70758;BME280;59316;52.964;7.102;2022-12-24T14:22:57;101162.53;;;8.59;nan
70758;BME280;59316;52.964;7.102;2022-12-24T14:28:05;101161.09;;;8.53;nan
70758;BME280;59316;52.964;7.102;2022-12-24T14:33:27;101171.16;;;8.43;nan
70758;BME280;59316;52.964;7.102;2022-12-24T14:38:31;101175.13;;;8.34;nan
70758;BME280;59316;52.964;7.102;2022-12-24T14:59:19;101205.88;;;7.61;nan
70758;BME280;59316;52.964;7.102;2022-12-24T15:04:22;101232.13;;;7.40;nan
70758;BME280;59316;52.964;7.102;2022-12-24T15:09:26;101245.09;;;7.42;nan
70758;BME280;59316;52.964;7.102;2022-12-24T15:14:34;101248.22;;;7.31;nan
70758;BME280;59316;52.964;7.102;2022-12-24T15:19:43;101252.22;;;7.20;nan
70758;BME280;59316;52.964;7.102;2022-12-24T15:24:48;101246.81;;;7.06;nan
70758;BME280;59316;52.964;7.102;2022-12-24T15:29:57;101255.47;;;6.87;nan
70758;BME280;59316;52.964;7.102;2022-12-24T15:35:00;101264.06;;;6.70;nan
70758;BME280;59316;52.964;7.102;2022-12-24T15:40:09;101267.44;;;6.53;nan
70758;BME280;59316;52.964;7.102;2022-12-24T15:50:30;101294.97;;;6.59;nan
70758;BME280;59316;52.964;7.102;2022-12-24T15:55:45;101284.03;;;6.51;nan
70758;BME280;59316;52.964;7.102;2022-12-24T16:06:16;101300.97;;;6.40;nan
